East Orange, NJ (07018)

11:13 AM EDT on August 01, 2015 (GMT -0400)
University Heights | | Change Station
CLOSE
Current Station
Personal Weather Station
Location: Newark, NJ
Elevation: 177 ft
Nearby Weather Stations

Elev 177 ft 40.74 °N, 74.19 °W | Updated 8 seconds ago

Mostly Cloudy
Mostly Cloudy
78.2 °F
Feels Like 80 °F
N
12.3
Wind Variable Wind from WSW
Gusts 12.3 mph

Today
High -- | Low -- °F
--% Chance of Precip.
Yesterday
High -- | Low -- °F
Precip. -- in
5:53 AM 8:12 PM
Full, 98% visible
Pressure 29.81 in
Visibility 10.0 miles
Clouds Few 5000 ft
Scattered Clouds 9500 ft
Mostly Cloudy 12000 ft
Heat Index 80 °F
Dew Point 67 °F
Humidity 68%
Rainfall 0.00 in
Snow Depth Not available.
UV 4 out of 12
Pollen 7.60 out of 12
Air Quality Not available.
Flu Activity Not available.
METAR KEWR 011451Z 25010G17KT 10SM FEW050 SCT095 BKN120 28/16 A2980 RMK AO2 SLP092 T02780161 50001

More Conditions Fewer Conditions

Pressure 29.81 in
Visibility 10.0 miles
Clouds Few 5000 ft
Scattered Clouds 9500 ft
Mostly Cloudy 12000 ft
Heat Index 80 °F
Dew Point 67 °F
Humidity 68%
Rainfall 0.00 in
Snow Depth Not available.
UV 4 out of 12
Pollen 7.60 out of 12
Air Quality Not available.
Flu Activity Not available.
METAR KEWR 011451Z 25010G17KT 10SM FEW050 SCT095 BKN120 28/16 A2980 RMK AO2 SLP092 T02780161 50001

More Conditions Fewer Conditions

10-Day Weather Forecast

×

Almanac

Astronomy

Aug. 01, 2015 Rise Set
Actual Time
Civil Twilight
Nautical Twilight
Astronomical Twilight
Moon
Length of Visible Light
Length of Day
Tomorrow will be .
, % of the Moon is Illuminated

Today's Extremes

State Highs State Lows

Community

WunderPhotos

Upload Photos

1,842,959 photos uploaded!

WunderBlogs® & News

Nearby

Air Quality

  Air Quality AQ Index Pollutant
Not available.

Snow Depth

Station Depth Elevation

Earthquake Activity

City Distance Mag. Time & Date
Minimum magnitude displayed is 2.5.

Coastal Water Temperatures

Place Temperature

Stations

Nearby Weather Stations

Station Location Temp. Windchill Dew Point Humidity Wind Precip. Elev Updated Type